createdAt,value
2018-01-19T00:00:12.196Z,2.30
2018-01-19T00:02:40.316Z,2.40
2018-01-19T00:05:08.452Z,2.40
2018-01-19T00:07:36.609Z,2.40
2018-01-19T00:10:05.666Z,2.60
2018-01-19T00:12:33.784Z,2.60
2018-01-19T00:15:01.926Z,2.70
2018-01-19T00:17:30.050Z,2.70
2018-01-19T00:19:58.201Z,2.80
2018-01-19T00:22:26.321Z,2.80
2018-01-19T00:24:54.444Z,2.90
2018-01-19T00:27:22.582Z,2.90
2018-01-19T00:29:50.775Z,3.00
2018-01-19T00:32:18.912Z,3.10
2018-01-19T00:34:47.053Z,3.10
2018-01-19T00:37:15.173Z,3.10
2018-01-19T00:39:43.288Z,3.10
2018-01-19T00:42:11.457Z,3.20
2018-01-19T00:44:39.616Z,3.10
2018-01-19T00:47:07.781Z,3.10
2018-01-19T00:49:36.166Z,3.10
2018-01-19T00:52:04.289Z,3.10
2018-01-19T00:54:32.419Z,3.10
2018-01-19T00:57:00.535Z,3.10
2018-01-19T00:59:28.688Z,3.20
2018-01-19T01:01:56.809Z,3.30
2018-01-19T01:04:25.711Z,3.20
2018-01-19T01:06:53.836Z,3.20
2018-01-19T01:09:21.990Z,3.30
2018-01-19T01:11:50.116Z,3.20
2018-01-19T01:14:18.268Z,3.00
2018-01-19T01:16:46.407Z,2.80
2018-01-19T01:19:14.602Z,2.60
2018-01-19T01:21:42.752Z,2.50
2018-01-19T01:24:10.873Z,2.50
2018-01-19T01:26:39.849Z,2.40
2018-01-19T01:29:08.032Z,2.40
2018-01-19T01:31:36.181Z,2.30
2018-01-19T01:34:04.306Z,2.10
2018-01-19T01:36:32.456Z,1.90
2018-01-19T01:39:00.576Z,1.70
2018-01-19T01:41:28.706Z,1.50
2018-01-19T01:43:57.613Z,1.50
2018-01-19T01:46:26.578Z,1.30
2018-01-19T01:49:06.569Z,1.30
2018-01-19T01:51:34.704Z,1.30
2018-01-19T01:54:02.821Z,1.20
2018-01-19T01:56:31.040Z,1.20
2018-01-19T01:58:59.176Z,1.00
2018-01-19T02:01:27.289Z,0.90
2018-01-19T02:03:55.463Z,0.70
2018-01-19T02:06:23.587Z,0.60
2018-01-19T02:08:51.739Z,0.90
2018-01-19T02:11:19.860Z,1.00
2018-01-19T02:13:47.969Z,1.00
2018-01-19T02:16:16.080Z,0.70
2018-01-19T02:18:44.245Z,0.50
2018-01-19T02:21:32.171Z,0.50
2018-01-19T02:24:00.350Z,0.50
2018-01-19T02:26:28.531Z,0.60
2018-01-19T02:28:56.662Z,0.70
2018-01-19T02:31:25.552Z,0.70
2018-01-19T02:33:53.754Z,0.70
2018-01-19T02:36:21.881Z,0.80
2018-01-19T02:38:50.755Z,0.70
2018-01-19T02:41:18.888Z,0.70
2018-01-19T02:43:47.046Z,0.70
2018-01-19T02:46:15.165Z,0.70
2018-01-19T02:48:43.470Z,0.70
2018-01-19T02:51:11.704Z,0.70
2018-01-19T02:53:39.817Z,0.70
2018-01-19T02:56:08.813Z,0.60
2018-01-19T02:58:36.912Z,0.70
2018-01-19T03:01:05.028Z,0.70
2018-01-19T03:03:33.168Z,0.70
2018-01-19T03:06:01.323Z,0.70
2018-01-19T03:08:29.433Z,0.70
2018-01-19T03:10:57.554Z,0.70
2018-01-19T03:13:25.681Z,0.80
2018-01-19T03:15:53.809Z,0.80
2018-01-19T03:18:21.942Z,0.80
2018-01-19T03:20:50.213Z,0.70
2018-01-19T03:23:18.320Z,0.80
2018-01-19T03:25:46.468Z,0.80
2018-01-19T03:28:14.603Z,0.80
2018-01-19T03:30:42.744Z,0.80
2018-01-19T03:33:10.889Z,0.80
2018-01-19T03:35:39.010Z,0.90
2018-01-19T03:38:07.133Z,0.90
2018-01-19T03:40:35.310Z,0.90
2018-01-19T03:43:03.421Z,0.90
2018-01-19T03:45:32.318Z,1.00
2018-01-19T03:48:00.442Z,1.00
2018-01-19T03:50:28.597Z,1.00
2018-01-19T03:52:56.776Z,1.10
2018-01-19T03:55:24.950Z,1.10
2018-01-19T03:57:53.891Z,1.10
2018-01-19T04:00:22.020Z,1.10
2018-01-19T04:02:50.134Z,1.10
2018-01-19T04:05:19.035Z,1.10
2018-01-19T04:07:47.168Z,1.10
2018-01-19T04:10:15.292Z,1.10
2018-01-19T04:12:43.440Z,1.20
2018-01-19T04:15:11.594Z,1.20
2018-01-19T04:17:40.493Z,1.40
2018-01-19T04:20:08.617Z,1.30
2018-01-19T04:22:36.778Z,1.40
2018-01-19T04:25:04.891Z,1.40
2018-01-19T04:27:33.068Z,1.50
2018-01-19T04:30:01.196Z,1.50
2018-01-19T04:32:29.357Z,1.60
2018-01-19T04:34:57.512Z,1.60
2018-01-19T04:37:25.664Z,1.60
2018-01-19T04:39:53.789Z,1.60
2018-01-19T04:42:21.950Z,1.60
2018-01-19T04:44:50.056Z,1.70
2018-01-19T04:47:18.214Z,1.70
2018-01-19T04:49:46.328Z,1.80
2018-01-19T04:52:14.461Z,1.90
2018-01-19T04:54:42.595Z,1.80
2018-01-19T04:57:10.756Z,1.80
2018-01-19T04:59:38.874Z,1.90
2018-01-19T05:02:07.017Z,1.90
2018-01-19T05:04:35.897Z,1.90
2018-01-19T05:07:04.034Z,1.80
2018-01-19T05:09:32.937Z,1.90
2018-01-19T05:12:01.069Z,1.90
2018-01-19T05:14:29.185Z,1.90
2018-01-19T05:16:57.340Z,1.90
2018-01-19T05:19:25.473Z,1.90
2018-01-19T05:21:53.607Z,2.00
2018-01-19T05:24:21.738Z,2.00
2018-01-19T05:26:50.750Z,2.00
2018-01-19T05:29:18.872Z,2.00
2018-01-19T05:31:47.020Z,2.00
2018-01-19T05:34:15.274Z,2.00
2018-01-19T05:36:44.167Z,2.00
2018-01-19T05:39:12.275Z,2.00
2018-01-19T05:41:40.432Z,1.90
2018-01-19T05:44:08.549Z,2.10
2018-01-19T05:46:36.711Z,2.00
2018-01-19T05:49:05.596Z,2.00
2018-01-19T05:51:34.583Z,2.00
2018-01-19T05:54:03.474Z,2.00
2018-01-19T05:56:32.378Z,2.00
2018-01-19T05:59:00.518Z,2.00
2018-01-19T06:01:28.648Z,2.00
2018-01-19T06:03:56.800Z,2.10
2018-01-19T06:06:24.932Z,2.00
2018-01-19T06:08:53.097Z,2.00
2018-01-19T06:11:21.233Z,2.00
2018-01-19T06:13:49.371Z,2.10
2018-01-19T06:16:17.504Z,2.10
2018-01-19T06:18:45.627Z,2.00
2018-01-19T06:21:13.922Z,1.90
2018-01-19T06:23:42.063Z,1.90
2018-01-19T06:26:10.988Z,1.90
2018-01-19T06:28:39.097Z,1.90
2018-01-19T06:31:08.005Z,1.80
2018-01-19T06:33:36.915Z,1.80
2018-01-19T06:36:05.062Z,1.70
2018-01-19T06:38:33.372Z,1.80
2018-01-19T06:41:01.623Z,1.70
2018-01-19T06:43:29.737Z,1.70
2018-01-19T06:45:57.878Z,1.70
2018-01-19T06:48:26.006Z,1.60
2018-01-19T06:50:54.159Z,1.70
2018-01-19T06:53:22.276Z,1.70
2018-01-19T06:55:50.410Z,1.60
2018-01-19T06:58:18.517Z,1.60
2018-01-19T07:00:46.648Z,1.60
2018-01-19T07:03:14.768Z,1.60
2018-01-19T07:05:42.903Z,1.70
2018-01-19T07:08:11.349Z,1.60
2018-01-19T07:10:39.456Z,1.60
2018-01-19T07:13:08.369Z,1.60
2018-01-19T07:15:36.526Z,1.50
2018-01-19T07:18:05.434Z,1.60
2018-01-19T07:20:33.551Z,1.60
2018-01-19T07:23:01.689Z,1.60
2018-01-19T07:25:29.804Z,1.60
2018-01-19T07:27:57.947Z,1.60
2018-01-19T07:30:26.064Z,1.60
2018-01-19T07:32:54.973Z,1.50
2018-01-19T07:35:23.104Z,1.50
2018-01-19T07:37:51.239Z,1.50
2018-01-19T07:40:19.362Z,1.50
2018-01-19T07:42:48.544Z,1.50
2018-01-19T07:45:16.667Z,1.50
2018-01-19T07:47:44.820Z,1.50
2018-01-19T07:50:12.931Z,1.50
2018-01-19T07:52:41.068Z,1.50
2018-01-19T07:55:09.193Z,1.50
2018-01-19T07:57:37.341Z,1.60
2018-01-19T08:00:05.540Z,1.50
2018-01-19T08:02:34.837Z,1.70
2018-01-19T08:05:02.943Z,1.70
2018-01-19T08:07:31.076Z,1.90
2018-01-19T08:09:59.315Z,1.90
2018-01-19T08:12:27.616Z,2.70
2018-01-19T08:14:55.998Z,3.20
2018-01-19T08:17:24.247Z,3.40
2018-01-19T08:19:52.637Z,3.10
2018-01-19T08:22:20.938Z,3.00
2018-01-19T08:24:49.998Z,3.20
2018-01-19T08:27:18.630Z,3.20
2018-01-19T08:29:47.019Z,2.70
2018-01-19T08:32:16.110Z,2.20
2018-01-19T08:34:45.386Z,2.20
2018-01-19T08:37:13.847Z,2.10
2018-01-19T08:39:42.177Z,2.10
2018-01-19T08:42:10.682Z,2.10
2018-01-19T08:44:38.930Z,2.00
2018-01-19T08:47:07.089Z,2.00
2018-01-19T08:49:35.549Z,2.00
2018-01-19T08:52:03.817Z,2.10
2018-01-19T08:54:32.014Z,2.10
2018-01-19T08:57:00.360Z,2.20
2018-01-19T08:59:28.492Z,2.30
2018-01-19T09:01:56.672Z,2.30
2018-01-19T09:04:24.810Z,2.30
2018-01-19T09:06:52.953Z,2.20
2018-01-19T09:09:21.844Z,2.30
2018-01-19T09:11:50.745Z,2.40
2018-01-19T09:14:18.872Z,2.40
2018-01-19T09:16:47.029Z,2.40
2018-01-19T09:19:15.931Z,2.30
2018-01-19T09:21:44.080Z,2.30
2018-01-19T09:24:12.197Z,2.30
2018-01-19T09:26:41.088Z,2.20
2018-01-19T09:29:09.221Z,2.20
2018-01-19T09:31:37.353Z,2.20
2018-01-19T09:34:05.489Z,2.20
2018-01-19T09:36:33.640Z,2.20
2018-01-19T09:39:01.800Z,2.20
2018-01-19T09:41:29.924Z,2.10
2018-01-19T09:43:58.070Z,2.10
2018-01-19T09:46:26.218Z,2.10
2018-01-19T09:48:55.149Z,2.20
2018-01-19T09:51:24.116Z,2.30
2018-01-19T09:53:52.309Z,2.30
2018-01-19T09:56:21.200Z,2.50
2018-01-19T09:58:49.367Z,2.50
2018-01-19T10:01:18.260Z,2.40
2018-01-19T10:03:47.164Z,2.40
2018-01-19T10:06:15.300Z,2.40
2018-01-19T10:08:44.195Z,2.40
2018-01-19T10:11:13.105Z,2.50
2018-01-19T10:13:41.223Z,2.50
2018-01-19T10:16:09.365Z,2.50
2018-01-19T10:18:37.482Z,2.50
2018-01-19T10:21:05.622Z,2.70
2018-01-19T10:23:33.756Z,2.70
2018-01-19T10:26:01.877Z,2.90
2018-01-19T10:28:30.000Z,2.90
2018-01-19T10:30:58.120Z,2.90
2018-01-19T10:33:26.256Z,2.90
2018-01-19T10:35:54.380Z,3.00
2018-01-19T10:38:22.519Z,2.90
2018-01-19T10:40:50.653Z,3.00
2018-01-19T10:43:18.785Z,3.00
2018-01-19T10:45:46.920Z,3.00
2018-01-19T10:48:15.060Z,3.10
2018-01-19T10:50:43.183Z,3.00
2018-01-19T10:53:11.332Z,3.00
2018-01-19T10:55:39.464Z,3.00
2018-01-19T10:58:07.581Z,2.90
2018-01-19T11:00:35.731Z,2.80
2018-01-19T11:03:03.848Z,2.90
2018-01-19T11:05:32.849Z,2.90
2018-01-19T11:08:00.973Z,2.90
2018-01-19T11:10:29.122Z,2.90
2018-01-19T11:12:57.258Z,3.00
2018-01-19T11:15:25.733Z,3.00
2018-01-19T11:17:53.850Z,2.90
2018-01-19T11:20:21.990Z,2.90
2018-01-19T11:22:50.892Z,2.90
2018-01-19T11:25:19.832Z,2.90
2018-01-19T11:27:48.051Z,2.90
2018-01-19T11:30:17.047Z,3.00
2018-01-19T11:32:46.001Z,3.00
2018-01-19T11:35:14.120Z,3.00
2018-01-19T11:37:42.257Z,3.00
2018-01-19T11:40:10.378Z,3.00
2018-01-19T11:42:38.516Z,3.00
2018-01-19T11:45:06.640Z,3.00
2018-01-19T11:47:34.787Z,3.00
2018-01-19T11:50:02.920Z,3.00
2018-01-19T11:52:31.830Z,3.00
2018-01-19T11:55:00.066Z,3.00
2018-01-19T11:57:29.053Z,3.00
2018-01-19T11:59:57.227Z,3.00
2018-01-19T12:02:25.369Z,3.00
2018-01-19T12:04:53.523Z,3.00
2018-01-19T12:07:21.640Z,3.00
2018-01-19T12:09:49.768Z,3.00
2018-01-19T12:12:17.892Z,3.00
2018-01-19T12:14:46.796Z,3.00
2018-01-19T12:17:15.683Z,3.00
2018-01-19T12:19:44.601Z,3.00
2018-01-19T12:22:13.090Z,2.90
2018-01-19T12:24:41.202Z,3.00
2018-01-19T12:27:09.341Z,3.00
2018-01-19T12:29:37.464Z,3.00
2018-01-19T12:32:06.376Z,3.00
2018-01-19T12:34:34.495Z,2.90
2018-01-19T12:37:02.637Z,3.00
2018-01-19T12:39:30.868Z,3.00
2018-01-19T12:41:59.121Z,3.00
2018-01-19T12:44:27.527Z,3.00
2018-01-19T12:46:56.462Z,3.00
2018-01-19T12:49:24.682Z,2.90
2018-01-19T12:51:55.510Z,2.90
2018-01-19T12:54:24.794Z,3.00
2018-01-19T12:56:52.984Z,2.90
2018-01-19T12:59:22.190Z,3.00
2018-01-19T13:01:51.124Z,3.00
2018-01-19T13:04:19.305Z,3.00
2018-01-19T13:06:47.623Z,3.00
2018-01-19T13:09:15.886Z,3.00
2018-01-19T13:11:45.602Z,3.10
2018-01-19T13:14:13.854Z,3.10
2018-01-19T13:16:42.810Z,3.00
2018-01-19T13:19:11.033Z,3.00
2018-01-19T13:21:39.249Z,3.00
2018-01-19T13:24:07.392Z,3.00
2018-01-19T13:26:35.607Z,3.10
2018-01-19T13:29:03.961Z,3.10
2018-01-19T13:31:32.271Z,3.10
2018-01-19T13:34:00.385Z,3.10
2018-01-19T13:36:29.268Z,3.20
2018-01-19T13:38:57.738Z,3.20
2018-01-19T13:41:26.633Z,3.30
2018-01-19T13:43:55.520Z,3.20
2018-01-19T13:46:24.420Z,3.20
2018-01-19T13:48:52.531Z,3.20
2018-01-19T13:51:20.865Z,3.20
2018-01-19T13:53:49.733Z,3.00
2018-01-19T13:56:17.990Z,3.00
2018-01-19T13:58:46.117Z,3.00
2018-01-19T14:01:14.257Z,3.00
2018-01-19T14:03:42.380Z,2.90
2018-01-19T14:06:10.501Z,2.90
2018-01-19T14:08:38.636Z,2.90
2018-01-19T14:11:06.829Z,2.90
2018-01-19T14:13:34.961Z,3.00
2018-01-19T14:16:03.080Z,3.00
2018-01-19T14:18:31.252Z,2.90
2018-01-19T14:21:00.121Z,2.90
2018-01-19T14:23:29.441Z,2.90
2018-01-19T14:25:57.707Z,3.00
2018-01-19T14:28:26.603Z,3.20
2018-01-19T14:30:55.489Z,3.40
2018-01-19T14:33:24.428Z,3.40
2018-01-19T14:35:52.604Z,3.40
2018-01-19T14:38:21.599Z,3.40
2018-01-19T14:40:49.916Z,3.40
2018-01-19T14:43:18.056Z,3.20
2018-01-19T14:45:46.181Z,3.10
2018-01-19T14:48:14.304Z,3.00
2018-01-19T14:50:42.440Z,2.90
2018-01-19T14:53:10.553Z,2.80
2018-01-19T14:55:38.689Z,2.80
2018-01-19T14:58:07.710Z,2.70
2018-01-19T15:00:36.744Z,2.70
2018-01-19T15:03:05.697Z,2.60
2018-01-19T15:05:34.706Z,2.60
2018-01-19T15:08:02.928Z,2.60
2018-01-19T15:10:32.585Z,2.60
2018-01-19T15:13:00.775Z,2.60
2018-01-19T15:15:28.888Z,2.60
2018-01-19T15:17:57.029Z,2.60
2018-01-19T15:20:25.209Z,2.50
2018-01-19T15:22:53.334Z,2.60
2018-01-19T15:25:21.456Z,2.50
2018-01-19T15:27:49.600Z,2.40
2018-01-19T15:30:17.712Z,2.30
2018-01-19T15:32:45.863Z,2.30
2018-01-19T15:35:14.004Z,2.20
2018-01-19T15:37:42.141Z,2.20
2018-01-19T15:40:10.288Z,2.10
2018-01-19T15:42:38.424Z,2.10
2018-01-19T15:45:06.552Z,2.10
2018-01-19T15:47:34.765Z,2.10
2018-01-19T15:50:03.705Z,2.00
2018-01-19T15:52:31.811Z,2.10
2018-01-19T15:55:00.786Z,2.10
2018-01-19T15:57:28.897Z,2.00
2018-01-19T15:59:57.145Z,2.00
2018-01-19T16:02:25.356Z,2.00
2018-01-19T16:04:54.382Z,1.80
2018-01-19T16:07:22.563Z,1.80
2018-01-19T16:09:51.520Z,1.80
2018-01-19T16:12:19.644Z,1.80
2018-01-19T16:14:47.781Z,1.70
2018-01-19T16:17:15.952Z,1.80
2018-01-19T16:19:44.100Z,1.70
2018-01-19T16:22:12.233Z,1.80
2018-01-19T16:24:40.353Z,1.80
2018-01-19T16:27:08.503Z,1.70
2018-01-19T16:29:37.301Z,1.70
2018-01-19T16:32:05.452Z,1.70
2018-01-19T16:34:33.568Z,1.60
2018-01-19T16:37:03.418Z,1.40
2018-01-19T16:39:32.406Z,1.40
2018-01-19T16:42:00.565Z,1.40
2018-01-19T16:44:29.452Z,1.30
2018-01-19T16:46:57.583Z,1.30
2018-01-19T16:49:26.104Z,1.20
2018-01-19T16:51:55.025Z,1.20
2018-01-19T16:54:23.168Z,1.20
2018-01-19T16:56:52.052Z,1.20
2018-01-19T16:59:20.188Z,1.20
2018-01-19T17:01:48.413Z,1.20
2018-01-19T17:04:16.580Z,1.20
2018-01-19T17:06:44.716Z,1.20
2018-01-19T17:09:12.857Z,1.20
2018-01-19T17:11:41.116Z,1.10
2018-01-19T17:14:09.745Z,1.10
2018-01-19T17:16:38.968Z,1.10
2018-01-19T17:19:07.704Z,1.10
2018-01-19T17:21:37.812Z,1.00
2018-01-19T17:24:07.293Z,1.10
2018-01-19T17:26:35.579Z,1.00
2018-01-19T17:29:03.958Z,0.90
2018-01-19T17:31:32.722Z,0.80
2018-01-19T17:34:00.955Z,0.80
2018-01-19T17:36:29.473Z,0.80
2018-01-19T17:38:57.780Z,0.80
2018-01-19T17:41:26.133Z,0.80
2018-01-19T17:43:54.457Z,0.80
2018-01-19T17:46:22.772Z,0.80
2018-01-19T17:48:51.325Z,0.80
2018-01-19T17:51:19.487Z,0.80
2018-01-19T17:53:47.748Z,0.80
2018-01-19T17:56:15.893Z,0.90
2018-01-19T17:58:44.141Z,1.00
2018-01-19T18:01:13.088Z,0.90
2018-01-19T18:03:41.467Z,0.90
2018-01-19T18:06:09.715Z,0.90
2018-01-19T18:08:37.855Z,0.90
2018-01-19T18:11:06.734Z,0.90
2018-01-19T18:13:35.632Z,1.00
2018-01-19T18:16:03.789Z,1.00
2018-01-19T18:18:33.414Z,1.00
2018-01-19T18:21:01.564Z,1.00
2018-01-19T18:23:29.736Z,1.00
2018-01-19T18:25:57.969Z,1.00
2018-01-19T18:28:26.124Z,1.00
2018-01-19T18:30:54.241Z,1.00
2018-01-19T18:33:22.389Z,1.10
2018-01-19T18:35:50.532Z,1.20
2018-01-19T18:38:18.770Z,1.20
2018-01-19T18:40:47.664Z,1.20
2018-01-19T18:43:15.842Z,1.20
2018-01-19T18:45:44.022Z,1.30
2018-01-19T18:48:12.163Z,1.30
2018-01-19T18:50:40.309Z,1.20
2018-01-19T18:53:09.965Z,1.10
2018-01-19T18:55:38.089Z,1.00
2018-01-19T18:58:06.221Z,1.10
2018-01-19T19:00:34.445Z,1.10
2018-01-19T19:03:02.625Z,1.10
2018-01-19T19:05:30.777Z,1.10
2018-01-19T19:07:58.972Z,1.00
2018-01-19T19:10:27.397Z,1.00
2018-01-19T19:12:55.688Z,1.10
2018-01-19T19:15:24.184Z,1.10
2018-01-19T19:17:52.422Z,1.10
2018-01-19T19:20:20.544Z,1.10
2018-01-19T19:22:49.444Z,1.10
2018-01-19T19:25:18.402Z,1.10
2018-01-19T19:27:46.526Z,1.10
2018-01-19T19:30:15.060Z,1.10
2018-01-19T19:32:43.986Z,1.20
2018-01-19T19:35:14.048Z,1.20
2018-01-19T19:37:42.423Z,1.20
2018-01-19T19:40:10.782Z,1.20
2018-01-19T19:42:39.104Z,1.20
2018-01-19T19:45:08.457Z,1.20
2018-01-19T19:47:36.708Z,1.20
2018-01-19T19:50:04.879Z,1.20
2018-01-19T19:52:33.014Z,1.20
2018-01-19T19:55:01.135Z,1.20
2018-01-19T19:57:29.312Z,1.10
2018-01-19T19:59:57.463Z,1.20
2018-01-19T20:02:26.404Z,1.20
2018-01-19T20:04:54.512Z,1.10
2018-01-19T20:07:23.467Z,1.10
2018-01-19T20:09:51.632Z,1.10
2018-01-19T20:12:19.786Z,1.10
2018-01-19T20:14:47.940Z,1.20
2018-01-19T20:17:16.131Z,1.20
2018-01-19T20:19:44.311Z,1.20
2018-01-19T20:22:12.517Z,1.20
2018-01-19T20:24:40.618Z,1.20
2018-01-19T20:27:08.782Z,1.20
2018-01-19T20:29:37.672Z,1.20
2018-01-19T20:32:05.807Z,1.20
2018-01-19T20:34:34.056Z,1.20
2018-01-19T20:37:02.696Z,1.20
2018-01-19T20:39:30.968Z,1.20
2018-01-19T20:41:59.227Z,1.20
2018-01-19T20:44:27.344Z,1.20
2018-01-19T20:46:55.500Z,1.10
2018-01-19T20:49:23.676Z,1.20
2018-01-19T20:51:51.785Z,1.20
2018-01-19T20:54:20.331Z,1.20
2018-01-19T20:56:48.510Z,1.20
2018-01-19T20:59:16.772Z,1.20
2018-01-19T21:01:44.973Z,1.20
2018-01-19T21:04:13.177Z,1.20
2018-01-19T21:06:41.461Z,1.20
2018-01-19T21:09:09.930Z,1.20
2018-01-19T21:11:38.107Z,1.20
2018-01-19T21:14:06.204Z,1.10
2018-01-19T21:16:34.386Z,1.10
2018-01-19T21:19:02.665Z,1.10
2018-01-19T21:21:30.840Z,1.10
2018-01-19T21:23:59.020Z,1.10
2018-01-19T21:26:27.300Z,1.10
2018-01-19T21:28:55.468Z,1.10
2018-01-19T21:31:23.700Z,1.10
2018-01-19T21:33:52.621Z,1.10
2018-01-19T21:36:20.740Z,1.10
2018-01-19T21:38:48.884Z,1.10
2018-01-19T21:41:17.180Z,1.00
2018-01-19T21:43:45.383Z,1.00
2018-01-19T21:46:14.346Z,1.00
2018-01-19T21:48:42.524Z,1.00
2018-01-19T21:51:10.657Z,1.00
2018-01-19T21:53:38.847Z,1.00
2018-01-19T21:56:07.168Z,0.90
2018-01-19T21:58:36.118Z,0.90
2018-01-19T22:01:04.334Z,0.90
2018-01-19T22:03:33.269Z,0.90
2018-01-19T22:06:01.424Z,0.90
2018-01-19T22:08:29.581Z,0.90
2018-01-19T22:10:57.714Z,0.90
2018-01-19T22:13:26.651Z,0.90
2018-01-19T22:15:54.760Z,0.90
2018-01-19T22:18:23.031Z,0.90
2018-01-19T22:20:51.213Z,0.90
2018-01-19T22:23:21.963Z,0.80
2018-01-19T22:25:50.912Z,0.80
2018-01-19T22:28:19.077Z,0.70
2018-01-19T22:30:47.242Z,0.70
2018-01-19T22:33:15.411Z,0.70
2018-01-19T22:35:43.580Z,0.60
2018-01-19T22:38:11.820Z,0.60
2018-01-19T22:40:40.740Z,0.70
2018-01-19T22:43:08.870Z,0.70
2018-01-19T22:45:37.857Z,0.70
2018-01-19T22:48:06.060Z,0.60
2018-01-19T22:50:34.389Z,0.70
2018-01-19T22:53:02.502Z,0.60
2018-01-19T22:55:30.646Z,0.60
2018-01-19T22:57:59.636Z,0.60
2018-01-19T23:00:27.801Z,0.60
2018-01-19T23:02:55.937Z,0.60
2018-01-19T23:05:24.128Z,0.60
2018-01-19T23:07:52.299Z,0.60
2018-01-19T23:10:20.497Z,0.60
2018-01-19T23:12:48.617Z,0.60
2018-01-19T23:15:16.800Z,0.60
2018-01-19T23:17:44.991Z,0.60
2018-01-19T23:20:13.172Z,0.60
2018-01-19T23:22:41.381Z,0.60
2018-01-19T23:25:09.549Z,0.70
2018-01-19T23:27:37.677Z,0.70
2018-01-19T23:30:06.558Z,0.80
2018-01-19T23:32:34.719Z,0.80
2018-01-19T23:35:02.921Z,0.90
2018-01-19T23:37:31.110Z,0.90
2018-01-19T23:40:00.026Z,0.70
2018-01-19T23:42:28.189Z,0.70
2018-01-19T23:44:56.368Z,0.70
2018-01-19T23:47:24.606Z,0.70
2018-01-19T23:49:53.516Z,0.60
2018-01-19T23:52:21.707Z,0.60
2018-01-19T23:54:49.874Z,0.60
2018-01-19T23:57:18.047Z,0.50
2018-01-19T23:59:46.238Z,0.50
